createdAt,value
2022-09-22T00:01:33.556Z,9.02
2022-09-22T00:05:35.766Z,8.86
2022-09-22T00:09:37.775Z,8.65
2022-09-22T00:13:41.283Z,8.67
2022-09-22T00:17:44.081Z,8.71
2022-09-22T00:21:47.868Z,8.69
2022-09-22T00:25:49.898Z,8.63
2022-09-22T00:29:52.186Z,8.82
2022-09-22T00:33:55.494Z,8.85
2022-09-22T00:37:57.765Z,8.76
2022-09-22T00:42:00.137Z,8.84
2022-09-22T00:46:09.788Z,8.88
2022-09-22T00:50:22.238Z,8.69
2022-09-22T00:54:24.579Z,8.76
2022-09-22T00:58:32.761Z,8.83
2022-09-22T01:02:35.252Z,8.78
2022-09-22T01:06:40.131Z,8.68
2022-09-22T01:10:42.257Z,8.64
2022-09-22T01:14:52.773Z,8.66
2022-09-22T01:19:40.091Z,8.65
2022-09-22T01:23:53.277Z,8.65
2022-09-22T01:28:15.368Z,8.57
2022-09-22T01:32:41.544Z,8.60
2022-09-22T01:36:49.835Z,8.40
2022-09-22T01:40:59.175Z,8.51
2022-09-22T01:45:12.124Z,8.55
2022-09-22T01:49:15.693Z,8.38
2022-09-22T01:53:22.670Z,8.27
2022-09-22T01:58:09.770Z,8.31
2022-09-22T02:02:22.713Z,8.23
2022-09-22T02:06:24.949Z,8.19
2022-09-22T02:10:35.028Z,8.24
2022-09-22T02:14:39.677Z,8.27
2022-09-22T02:19:16.381Z,8.34
2022-09-22T02:23:18.461Z,8.18
2022-09-22T02:27:27.125Z,8.21
2022-09-22T02:31:34.583Z,8.27
2022-09-22T02:35:39.831Z,8.27
2022-09-22T02:40:21.287Z,8.34
2022-09-22T02:44:54.707Z,8.29
2022-09-22T02:49:01.743Z,8.36
2022-09-22T02:53:13.367Z,8.42
2022-09-22T02:57:15.399Z,8.54
2022-09-22T03:01:17.542Z,8.63
2022-09-22T03:05:20.105Z,8.62
2022-09-22T03:09:22.570Z,8.53
2022-09-22T03:13:24.564Z,8.35
2022-09-22T03:17:27.047Z,8.41
2022-09-22T03:21:29.135Z,8.29
2022-09-22T03:25:31.109Z,8.33
2022-09-22T03:29:33.482Z,8.36
2022-09-22T03:33:35.558Z,8.32
2022-09-22T03:37:37.861Z,8.25
2022-09-22T03:41:41.075Z,8.30
2022-09-22T03:45:44.165Z,8.20
2022-09-22T03:49:46.879Z,8.24
2022-09-22T03:53:48.932Z,8.23
2022-09-22T03:57:51.087Z,8.27
2022-09-22T04:01:57.451Z,8.12
2022-09-22T04:06:00.743Z,7.27
2022-09-22T04:10:03.906Z,7.32
2022-09-22T04:14:06.013Z,7.51
2022-09-22T04:18:08.395Z,7.58
2022-09-22T04:22:10.395Z,7.43
2022-09-22T04:26:12.635Z,7.54
2022-09-22T04:30:15.038Z,7.53
2022-09-22T04:34:18.174Z,7.34
2022-09-22T04:38:20.781Z,7.51
2022-09-22T04:42:23.006Z,7.49
2022-09-22T04:46:26.793Z,7.53
2022-09-22T04:50:28.860Z,7.49
2022-09-22T04:54:31.305Z,7.58
2022-09-22T04:58:33.662Z,7.59
2022-09-22T05:02:36.070Z,7.48
2022-09-22T05:06:38.484Z,7.55
2022-09-22T05:10:40.525Z,7.56
2022-09-22T05:19:35.020Z,7.57
2022-09-22T05:23:37.165Z,7.65
2022-09-22T05:27:54.070Z,7.76
2022-09-22T05:31:56.539Z,7.78
2022-09-22T05:35:58.825Z,7.89
2022-09-22T05:40:00.991Z,8.00
2022-09-22T05:44:03.258Z,8.11
2022-09-22T05:48:05.629Z,8.19
2022-09-22T05:52:07.856Z,8.29
2022-09-22T05:56:10.242Z,8.50
2022-09-22T06:00:12.866Z,8.68
2022-09-22T06:04:15.145Z,8.90
2022-09-22T06:08:17.878Z,9.08
2022-09-22T06:12:20.151Z,9.36
2022-09-22T06:16:23.206Z,9.65
2022-09-22T06:20:25.844Z,10.06
2022-09-22T06:24:28.422Z,10.40
2022-09-22T06:28:30.493Z,10.75
2022-09-22T06:32:33.748Z,11.14
2022-09-22T06:36:35.781Z,11.63
2022-09-22T06:40:37.829Z,11.77
2022-09-22T06:44:41.268Z,12.06
2022-09-22T06:48:43.466Z,12.35
2022-09-22T06:52:45.549Z,12.69
2022-09-22T06:56:48.001Z,12.86
2022-09-22T07:00:51.227Z,13.19
2022-09-22T07:04:54.152Z,13.43
2022-09-22T07:08:56.290Z,13.67
2022-09-22T07:13:01.500Z,13.85
2022-09-22T07:17:03.940Z,14.06
2022-09-22T07:21:09.027Z,14.20
2022-09-22T07:25:11.198Z,14.35
2022-09-22T07:29:13.871Z,14.52
2022-09-22T07:33:18.945Z,14.64
2022-09-22T07:37:21.062Z,14.91
2022-09-22T07:41:28.976Z,15.07
2022-09-22T07:45:31.539Z,15.16
2022-09-22T07:49:33.814Z,15.29
2022-09-22T07:53:37.421Z,15.49
2022-09-22T07:57:39.449Z,15.64
2022-09-22T08:01:47.678Z,15.62
2022-09-22T08:05:52.521Z,15.71
2022-09-22T08:09:54.709Z,15.76
2022-09-22T08:13:58.865Z,15.92
2022-09-22T08:18:04.027Z,16.01
2022-09-22T08:22:06.301Z,16.02
2022-09-22T08:26:08.883Z,16.15
2022-09-22T08:30:12.102Z,16.33
2022-09-22T08:34:16.451Z,16.38
2022-09-22T08:38:18.797Z,16.36
2022-09-22T08:42:23.328Z,16.48
2022-09-22T08:46:38.399Z,16.59
2022-09-22T08:51:06.282Z,16.74
2022-09-22T08:55:22.076Z,16.84
2022-09-22T08:59:35.960Z,16.92
2022-09-22T09:03:56.164Z,17.08
2022-09-22T09:08:11.301Z,17.24
2022-09-22T09:12:19.438Z,17.30
2022-09-22T09:16:46.950Z,17.36
2022-09-22T09:20:52.407Z,17.53
2022-09-22T09:29:34.197Z,17.78
2022-09-22T09:34:06.186Z,17.85
2022-09-22T09:38:12.359Z,17.85
2022-09-22T09:42:22.292Z,17.65
2022-09-22T09:47:02.261Z,17.67
2022-09-22T09:51:05.968Z,17.86
2022-09-22T09:55:27.650Z,18.08
2022-09-22T09:59:49.829Z,18.18
2022-09-22T10:03:54.874Z,18.23
2022-09-22T10:08:00.396Z,18.20
2022-09-22T10:12:03.730Z,18.29
2022-09-22T10:16:20.055Z,18.36
2022-09-22T10:20:31.656Z,18.38
2022-09-22T10:24:35.876Z,18.54
2022-09-22T10:28:37.870Z,18.65
2022-09-22T10:32:41.410Z,18.63
2022-09-22T10:36:47.548Z,18.62
2022-09-22T10:40:56.972Z,18.75
2022-09-22T10:45:05.276Z,18.85
2022-09-22T10:49:26.367Z,18.89
2022-09-22T10:53:32.085Z,19.02
2022-09-22T10:57:41.447Z,18.93
2022-09-22T11:02:26.807Z,18.91
2022-09-22T11:07:07.074Z,19.08
2022-09-22T11:11:40.788Z,19.29
2022-09-22T11:16:13.372Z,19.31
2022-09-22T11:20:43.684Z,19.28
2022-09-22T11:25:07.099Z,19.28
2022-09-22T11:29:27.933Z,19.45
2022-09-22T11:33:39.336Z,19.44
2022-09-22T11:38:03.285Z,19.53
2022-09-22T11:42:36.511Z,19.43
2022-09-22T11:47:03.638Z,18.82
2022-09-22T11:51:44.679Z,18.83
2022-09-22T11:56:21.893Z,19.17
2022-09-22T12:00:24.516Z,19.24
2022-09-22T12:04:37.948Z,19.03
2022-09-22T12:09:05.946Z,18.72
2022-09-22T12:13:20.625Z,18.87
2022-09-22T12:17:33.218Z,18.97
2022-09-22T12:22:12.694Z,19.30
2022-09-22T12:26:33.638Z,19.52
2022-09-22T12:30:35.824Z,19.72
2022-09-22T12:34:40.073Z,20.00
2022-09-22T12:38:43.880Z,20.28
2022-09-22T12:42:51.143Z,20.48
2022-09-22T12:46:59.398Z,20.48
2022-09-22T12:51:24.674Z,20.05
2022-09-22T12:55:29.529Z,20.10
2022-09-22T12:59:57.104Z,20.34
2022-09-22T13:04:15.097Z,20.38
2022-09-22T13:08:38.600Z,20.25
2022-09-22T13:12:40.826Z,20.37
2022-09-22T13:16:44.936Z,20.59
2022-09-22T13:20:47.522Z,20.60
2022-09-22T13:24:49.532Z,20.26
2022-09-22T13:29:19.708Z,19.94
2022-09-22T13:33:25.647Z,20.05
2022-09-22T13:37:28.100Z,20.08
2022-09-22T13:41:44.158Z,20.07
2022-09-22T13:45:46.481Z,19.89
2022-09-22T13:49:55.078Z,19.95
2022-09-22T13:53:57.986Z,19.95
2022-09-22T13:58:03.254Z,19.99
2022-09-22T14:02:09.052Z,20.04
2022-09-22T14:06:20.517Z,20.02
2022-09-22T14:10:23.386Z,19.87
2022-09-22T14:14:27.586Z,19.90
2022-09-22T14:18:30.474Z,20.11
2022-09-22T14:22:40.345Z,20.26
2022-09-22T14:26:51.289Z,20.19
2022-09-22T14:30:53.808Z,20.25
2022-09-22T14:34:58.933Z,20.28
2022-09-22T14:39:09.932Z,20.18
2022-09-22T14:43:42.551Z,19.92
2022-09-22T14:47:44.823Z,20.04
2022-09-22T14:51:48.006Z,20.20
2022-09-22T14:55:54.124Z,20.25
2022-09-22T15:00:17.517Z,20.07
2022-09-22T15:04:27.736Z,19.97
2022-09-22T15:08:32.282Z,19.78
2022-09-22T15:12:38.616Z,19.40
2022-09-22T15:16:43.466Z,19.13
2022-09-22T15:20:50.149Z,18.96
2022-09-22T15:24:52.823Z,18.95
2022-09-22T15:29:01.733Z,19.02
2022-09-22T15:33:03.919Z,19.28
2022-09-22T15:37:20.550Z,19.38
2022-09-22T15:41:22.771Z,19.24
2022-09-22T15:45:25.415Z,19.37
2022-09-22T15:49:28.475Z,19.57
2022-09-22T15:53:31.844Z,19.75
2022-09-22T15:57:34.452Z,20.87
2022-09-22T16:01:36.827Z,21.56
2022-09-22T16:05:40.919Z,21.57
2022-09-22T16:09:43.115Z,22.00
2022-09-22T16:13:46.518Z,22.20
2022-09-22T16:17:48.649Z,22.32
2022-09-22T16:21:54.293Z,22.05
2022-09-22T16:25:56.366Z,21.66
2022-09-22T16:30:00.082Z,21.24
2022-09-22T16:34:06.509Z,21.02
2022-09-22T16:38:08.689Z,20.43
2022-09-22T16:42:10.756Z,20.20
2022-09-22T16:46:31.445Z,19.42
2022-09-22T16:50:37.073Z,18.60
2022-09-22T16:54:39.725Z,18.01
2022-09-22T16:58:41.699Z,17.60
2022-09-22T17:02:46.015Z,17.13
2022-09-22T17:06:48.729Z,16.72
2022-09-22T17:10:51.632Z,16.45
2022-09-22T17:14:55.137Z,16.17
2022-09-22T17:19:03.256Z,15.89
2022-09-22T17:23:06.861Z,15.69
2022-09-22T17:27:08.978Z,15.51
2022-09-22T17:31:11.628Z,15.35
2022-09-22T17:35:14.252Z,15.20
2022-09-22T17:39:16.394Z,15.04
2022-09-22T17:43:22.814Z,14.91
2022-09-22T17:47:43.420Z,14.78
2022-09-22T17:52:09.295Z,14.64
2022-09-22T17:56:13.137Z,14.51
2022-09-22T18:00:23.449Z,14.33
2022-09-22T18:04:30.170Z,14.25
2022-09-22T18:08:32.806Z,14.20
2022-09-22T18:12:36.591Z,14.17
2022-09-22T18:16:39.366Z,14.11
2022-09-22T18:20:41.910Z,14.12
2022-09-22T18:24:45.432Z,14.02
2022-09-22T18:28:50.697Z,13.95
2022-09-22T18:32:53.031Z,13.86
2022-09-22T18:36:56.634Z,13.74
2022-09-22T18:40:59.252Z,13.60
2022-09-22T18:45:01.492Z,13.51
2022-09-22T18:49:06.080Z,13.40
2022-09-22T18:53:08.525Z,13.21
2022-09-22T18:57:14.010Z,13.08
2022-09-22T19:01:17.328Z,12.95
2022-09-22T19:05:19.616Z,12.83
2022-09-22T19:09:22.241Z,12.76
2022-09-22T19:13:26.317Z,12.65
2022-09-22T19:17:29.020Z,12.56
2022-09-22T19:21:31.718Z,12.41
2022-09-22T19:25:34.495Z,12.21
2022-09-22T19:29:36.746Z,12.11
2022-09-22T19:33:38.951Z,12.06
2022-09-22T19:37:41.382Z,11.99
2022-09-22T19:41:48.198Z,11.89
2022-09-22T19:45:52.357Z,11.78
2022-09-22T19:49:55.149Z,11.67
2022-09-22T19:53:58.184Z,11.60
2022-09-22T19:58:00.282Z,11.41
2022-09-22T20:02:03.811Z,11.31
2022-09-22T20:06:06.462Z,11.40
2022-09-22T20:10:08.787Z,11.28
2022-09-22T20:14:22.479Z,11.17
2022-09-22T20:18:28.394Z,11.12
2022-09-22T20:22:30.568Z,11.13
2022-09-22T20:26:33.843Z,11.05
2022-09-22T20:30:36.116Z,10.98
2022-09-22T20:34:38.661Z,10.92
2022-09-22T20:38:41.984Z,10.80
2022-09-22T20:42:45.710Z,10.77
2022-09-22T20:46:48.206Z,10.66
2022-09-22T20:51:02.899Z,10.63
2022-09-22T20:55:05.444Z,10.50
2022-09-22T20:59:07.852Z,10.48
2022-09-22T21:03:09.986Z,10.39
2022-09-22T21:07:12.299Z,10.20
2022-09-22T21:11:16.192Z,10.24
2022-09-22T21:15:21.614Z,10.24
2022-09-22T21:19:23.830Z,10.13
2022-09-22T21:23:25.865Z,10.03
2022-09-22T21:27:28.240Z,10.02
2022-09-22T21:31:30.427Z,9.91
2022-09-22T21:35:33.799Z,9.98
2022-09-22T21:39:35.830Z,9.96
2022-09-22T21:43:38.570Z,9.89
2022-09-22T21:47:40.769Z,9.86
2022-09-22T21:51:44.448Z,9.81
2022-09-22T21:55:46.822Z,9.97
2022-09-22T21:59:48.875Z,9.86
2022-09-22T22:03:53.318Z,9.84
2022-09-22T22:07:55.590Z,9.81
2022-09-22T22:11:59.060Z,9.52
2022-09-22T22:16:02.065Z,9.53
2022-09-22T22:20:04.599Z,9.54
2022-09-22T22:24:23.201Z,9.61
2022-09-22T22:28:25.395Z,9.52
2022-09-22T22:32:27.996Z,9.28
2022-09-22T22:36:30.197Z,9.16
2022-09-22T22:40:32.288Z,9.10
2022-09-22T22:44:36.239Z,9.09
2022-09-22T22:48:38.912Z,8.96
2022-09-22T22:52:42.331Z,8.89
2022-09-22T22:56:48.869Z,8.89
2022-09-22T23:01:17.094Z,8.84
2022-09-22T23:05:19.363Z,8.82
2022-09-22T23:09:21.908Z,8.85
2022-09-22T23:13:24.028Z,8.52
2022-09-22T23:17:27.805Z,8.41
2022-09-22T23:21:33.165Z,8.46
2022-09-22T23:25:36.314Z,8.35
2022-09-22T23:29:38.948Z,7.92
2022-09-22T23:33:44.187Z,8.05
2022-09-22T23:37:47.191Z,8.14
2022-09-22T23:41:51.371Z,7.96
2022-09-22T23:45:53.799Z,7.92
2022-09-22T23:49:56.475Z,7.94
2022-09-22T23:53:59.202Z,8.07
2022-09-22T23:58:01.250Z,8.01
